Thunder radar more information blitzortung!


Radar de pluja more information rain snow radar


Visita la nostra xarxa de llocs de meteo:

Template documentation
and downloads

And another site



No particular awareness of the weather is required.    There are no Weather-warnings

Pagina Historial Weather Underground text

Diari Resum Agost 30, 2017 Unitats:  Imperial    Mètric   Tant
« Previous Dia
SegĂźent Dia »
Diari Setmana Mensual Anual Personalitzada
  Maxima: Minima: Media:
Temperatura: TemperatureC °F 18.7 °F 23.5 °F
Punt de rosada: DewpointC °F 13.2 °F 16.2 °F
Humitat: Humidity % 48 % 64 %
Wind Speed: WindSpeedKMH mph 0.0 mph 6 mph
RĂ fegues de vent: WindSpeedGustKMH mph - -
Vent:- - SW
Pression baro: PressurehPa in 1011.7 in -
Precipitacions: 0.0 in    
Historical Graphs
 
 
Dades de taula per Agost 30, 2017
Temps Temperatura Punt de rosada Pression baro Vent Wind Speed RĂ fegues de vent Humitat Rainfall Rate (Hourly)
TemperatureC °F DewpointC °F PressurehPa in Calm     Humidity % HourlyPrecipMM in
00:01 23.3 °F 13.2 °F 1013.8 in SW 5.6 mph   53 % 0.0 in
00:05 20.8 °F 14.0 °F 1015.8 in WSW 8.0 mph 12.9 mph 65 % 0.0 in
00:15 20.7 °F 14.3 °F 1014.8 in WSW 3.2 mph 6.4 mph 67 % 0.0 in
00:30 20.6 °F 14.3 °F 1014.8 in WSW 3.2 mph 8.0 mph 67 % 0.0 in
00:40 20.7 °F 14.6 °F 1014.8 in WSW 4.8 mph 9.7 mph 68 % 0.0 in
00:50 20.8 °F 14.7 °F 1014.8 in WSW 1.6 mph 9.7 mph 68 % 0.0 in
01:00 20.7 °F 14.6 °F 1014.8 in West 3.2 mph 4.8 mph 68 % 0.0 in
01:10 20.8 °F 14.7 °F 1014.8 in WSW 3.2 mph 4.8 mph 68 % 0.0 in
01:20 20.6 °F 14.7 °F 1014.8 in Calm   3.2 mph 69 % 0.0 in
01:30 20.4 °F 14.7 °F 1014.8 in WSW 3.2 mph 4.8 mph 70 % 0.0 in
01:40 20.4 °F 14.7 °F 1014.8 in WSW 3.2 mph 6.4 mph 70 % 0.0 in
01:50 20.5 °F 14.8 °F 1014.8 in SW 4.8 mph 4.8 mph 70 % 0.0 in
02:00 20.5 °F 15.1 °F 1014.8 in WSW 3.2 mph 3.2 mph 71 % 0.0 in
02:10 20.3 °F 15.1 °F 1014.8 in WSW 3.2 mph 4.8 mph 72 % 0.0 in
02:20 19.8 °F 15.2 °F 1014.8 in WSW 3.2 mph 4.8 mph 75 % 0.0 in
02:30 19.5 °F 15.2 °F 1015.8 in WSW 3.2 mph 8.0 mph 76 % 0.0 in
02:40 19.3 °F 15.2 °F 1015.8 in WSW 3.2 mph 4.8 mph 77 % 0.0 in
02:50 19.2 °F 15.3 °F 1015.8 in Calm   4.8 mph 78 % 0.0 in
03:00 19.1 °F 15.6 °F 1014.8 in Calm     80 % 0.0 in
03:10 19.1 °F 15.6 °F 1014.8 in Calm   3.2 mph 80 % 0.0 in
03:20 19.0 °F 15.4 °F 1014.8 in SW 3.2 mph 4.8 mph 80 % 0.0 in
03:30 19.0 °F 15.7 °F 1015.8 in Calm   4.8 mph 81 % 0.0 in
03:40 18.9 °F 15.8 °F 1015.8 in SW 3.2 mph 3.2 mph 82 % 0.0 in
03:50 18.9 °F 15.8 °F 1014.8 in WSW 3.2 mph 4.8 mph 82 % 0.0 in
04:00 18.8 °F 15.8 °F 1014.8 in WSW 1.6 mph 4.8 mph 83 % 0.0 in
04:10 18.7 °F 15.9 °F 1014.8 in SW 1.6 mph 3.2 mph 84 % 0.0 in
04:20 18.7 °F 15.9 °F 1014.8 in Calm   3.2 mph 84 % 0.0 in
04:30 18.8 °F 16.1 °F 1014.8 in Calm   3.2 mph 84 % 0.0 in
04:40 18.9 °F 16.1 °F 1014.8 in Calm   3.2 mph 84 % 0.0 in
04:50 19.0 °F 16.1 °F 1014.8 in SE 1.6 mph 3.2 mph 83 % 0.0 in
05:00 19.3 °F 16.5 °F 1013.8 in Calm     84 % 0.0 in
05:10 19.6 °F 16.6 °F 1013.8 in South 1.6 mph 4.8 mph 83 % 0.0 in
05:20 20.1 °F 17.1 °F 1013.8 in SE 1.6 mph 4.8 mph 83 % 0.0 in
05:30 20.2 °F 16.8 °F 1013.8 in East 1.6 mph 4.8 mph 81 % 0.0 in
05:40 20.1 °F 16.6 °F 1013.8 in NE 1.6 mph 6.4 mph 80 % 0.0 in
05:50 20.1 °F 16.7 °F 1013.8 in Calm   3.2 mph 81 % 0.0 in
10:56 22.8 °F 18.8 °F 1013.8 in Calm   2.6 mph 78 % 0.0 in
11:01 23.3 °F 18.6 °F 1013.8 in SW 3.7 mph 3.7 mph 75 % 0.0 in
11:06 23.5 °F 18.6 °F 1013.8 in SSW 3.7 mph 3.7 mph 74 % 0.0 in
11:11 24.0 °F 18.7 °F 1013.8 in SSW 6.4 mph 6.4 mph 72 % 0.0 in
11:16 24.1 °F 18.1 °F 1013.8 in South 3.7 mph 3.7 mph 69 % 0.0 in
11:21 24.2 °F 18.2 °F 1013.8 in WSW 3.7 mph 3.7 mph 69 % 0.0 in
11:26 24.5 °F 18.4 °F 1013.8 in SE 2.3 mph 2.3 mph 69 % 0.0 in
11:31 24.0 °F 17.7 °F 1013.8 in SSE 7.4 mph 7.4 mph 68 % 0.0 in
11:36 23.8 °F 17.8 °F 1013.8 in SE 4.2 mph 4.7 mph 69 % 0.0 in
11:41 24.2 °F 18.2 °F 1014.8 in ESE 2.3 mph 2.3 mph 69 % 0.0 in
11:46 24.6 °F 18.3 °F 1014.8 in SW 3.7 mph 3.7 mph 68 % 0.0 in
11:51 25.2 °F 18.4 °F 1014.8 in WSW 7.4 mph 7.4 mph 66 % 0.0 in
11:56 25.9 °F 18.3 °F 1013.8 in SSW 2.3 mph 2.3 mph 63 % 0.0 in
12:01 25.9 °F 18.3 °F 1013.8 in WSW 9.3 mph 9.3 mph 63 % 0.0 in
12:06 26.4 °F 18.6 °F 1013.8 in South 4.2 mph 4.2 mph 62 % 0.0 in
12:11 27.0 °F 18.6 °F 1012.8 in SSW 6.1 mph 6.1 mph 60 % 0.0 in
12:16 27.3 °F 18.3 °F 1012.8 in SW 3.7 mph 3.7 mph 58 % 0.0 in
12:21 27.4 °F 18.1 °F 1012.8 in WSW 7.4 mph 7.4 mph 57 % 0.0 in
12:26 27.2 °F 17.7 °F 1013.8 in SW 7.4 mph 7.4 mph 56 % 0.0 in
12:31 27.5 °F 17.7 °F 1013.8 in WSW 9.3 mph 9.3 mph 55 % 0.0 in
12:36 28.2 °F 18.0 °F 1013.8 in SSE 7.4 mph 7.4 mph 54 % 0.0 in
12:41 28.1 °F 17.6 °F 1013.8 in West 9.3 mph 9.3 mph 53 % 0.0 in
12:46 28.2 °F 17.7 °F 1013.8 in SW 10.0 mph 10.0 mph 53 % 0.0 in
12:51 27.8 °F 17.1 °F 1013.8 in SW 9.3 mph 9.3 mph 52 % 0.0 in
12:56 27.8 °F 17.1 °F 1013.8 in SW 5.6 mph 5.6 mph 52 % 0.0 in
13:01 27.7 °F 16.9 °F 1013.8 in SW 11.1 mph 11.1 mph 52 % 0.0 in
13:06 27.5 °F 16.8 °F 1013.8 in SW 11.9 mph 11.9 mph 52 % 0.0 in
13:11 27.3 °F 16.6 °F 1013.8 in South 5.8 mph 5.8 mph 52 % 0.0 in
13:16 27.4 °F 16.7 °F 1013.8 in SW 9.3 mph 9.3 mph 52 % 0.0 in
13:21 27.4 °F 16.4 °F 1013.8 in SW 13.0 mph 13.0 mph 51 % 0.0 in
13:26 27.6 °F 16.8 °F 1013.8 in SW 7.4 mph 7.4 mph 52 % 0.0 in
13:31 28.0 °F 16.9 °F 1013.8 in WNW 7.4 mph 7.4 mph 51 % 0.0 in
13:36 28.0 °F 16.6 °F 1013.8 in SSE 13.0 mph 13.0 mph 50 % 0.0 in
13:41 28.0 °F 16.3 °F 1013.8 in WSW 9.3 mph 9.3 mph 49 % 0.0 in
13:46 28.1 °F 16.7 °F 1013.8 in SSW 13.0 mph 13.0 mph 50 % 0.0 in
13:51 28.2 °F 16.8 °F 1013.8 in SW 16.7 mph 16.7 mph 50 % 0.0 in
13:56 27.8 °F 16.4 °F 1013.8 in South 7.4 mph 7.4 mph 50 % 0.0 in
14:01 27.8 °F 16.4 °F 1013.8 in SE 11.1 mph 11.1 mph 50 % 0.0 in
14:06 27.8 °F 16.1 °F 1013.8 in SW 9.7 mph 9.7 mph 49 % 0.0 in
14:11 27.8 °F 16.1 °F 1013.8 in SSW 9.3 mph 9.3 mph 49 % 0.0 in
14:16 27.4 °F 15.7 °F 1013.8 in WSW 18.0 mph 18.0 mph 49 % 0.0 in
14:21 27.1 °F 15.2 °F 1013.8 in WSW 13.0 mph 13.0 mph 48 % 0.0 in
14:26 27.1 °F 15.2 °F 1013.8 in SSE 13.0 mph 13.0 mph 48 % 0.0 in
14:27 27.1 °F 15.2 °F 1013.8 in SW 5.8 mph 6.1 mph 48 % 0.0 in
14:32 27.0 °F 15.4 °F 1013.8 in SSW 11.1 mph 11.1 mph 49 % 0.0 in
14:37 26.9 °F 15.6 °F 1013.8 in SSW 9.3 mph 9.3 mph 50 % 0.0 in
14:42 26.7 °F 15.1 °F 1013.8 in SW 14.8 mph 14.8 mph 49 % 0.0 in
14:47 26.6 °F 15.0 °F 1013.8 in SW 16.7 mph 16.7 mph 49 % 0.0 in
14:52 26.4 °F 15.1 °F 1013.8 in SSW 13.0 mph 13.0 mph 50 % 0.0 in
14:57 26.5 °F 15.2 °F 1013.8 in WSW 11.1 mph 11.1 mph 50 % 0.0 in
15:02 26.3 °F 15.1 °F 1013.8 in SW 13.0 mph 13.0 mph 50 % 0.0 in
15:07 26.2 °F 14.9 °F 1013.8 in WSW 12.6 mph 12.6 mph 50 % 0.0 in
15:12 26.3 °F 15.3 °F 1013.8 in SW 7.4 mph 7.4 mph 51 % 0.0 in
15:17 26.4 °F 15.4 °F 1013.8 in SSW 11.1 mph 11.1 mph 51 % 0.0 in
15:22 26.4 °F 15.4 °F 1013.8 in SW 18.5 mph 18.5 mph 51 % 0.0 in
15:27 26.4 °F 15.4 °F 1013.8 in SSW 11.1 mph 11.1 mph 51 % 0.0 in
15:32 26.6 °F 15.6 °F 1013.8 in SW 9.3 mph 9.3 mph 51 % 0.0 in
15:37 26.5 °F 15.6 °F 1013.8 in SW 14.8 mph 14.8 mph 51 % 0.0 in
15:42 26.4 °F 15.4 °F 1013.8 in SW 11.9 mph 11.9 mph 51 % 0.0 in
15:47 26.4 °F 15.1 °F 1013.8 in SW 14.8 mph 14.8 mph 50 % 0.0 in
15:52 26.5 °F 15.6 °F 1013.8 in SSW 11.1 mph 11.1 mph 51 % 0.0 in
15:57 26.4 °F 15.4 °F 1013.8 in SW 14.8 mph 14.8 mph 51 % 0.0 in
16:02 26.3 °F 15.1 °F 1013.8 in SW 13.0 mph 13.0 mph 50 % 0.0 in
16:07 26.2 °F 15.3 °F 1013.8 in SW 16.7 mph 16.7 mph 51 % 0.0 in
16:12 26.3 °F 15.3 °F 1012.8 in SSE 12.2 mph 12.2 mph 51 % 0.0 in
16:17 26.3 °F 15.3 °F 1012.8 in SSW 9.3 mph 9.3 mph 51 % 0.0 in
16:22 26.1 °F 15.2 °F 1012.8 in SW 9.3 mph 9.3 mph 51 % 0.0 in
16:27 26.0 °F 15.1 °F 1012.8 in SW 13.0 mph 13.0 mph 51 % 0.0 in
16:32 26.0 °F 15.1 °F 1012.8 in SW 13.0 mph 13.0 mph 51 % 0.0 in
16:37 26.1 °F 15.2 °F 1012.8 in West 9.3 mph 9.5 mph 51 % 0.0 in
16:42 26.0 °F 15.1 °F 1011.7 in South 14.8 mph 14.8 mph 51 % 0.0 in
16:52 25.8 °F 14.9 °F 1011.7 in SSW 16.7 mph 16.7 mph 51 % 0.0 in
16:57 25.9 °F 15.3 °F 1012.8 in SSW 8.7 mph 8.7 mph 52 % 0.0 in
17:02 25.8 °F 15.2 °F 1012.8 in SW 11.1 mph 11.1 mph 52 % 0.0 in
17:07 25.6 °F 15.3 °F 1012.8 in SSE 9.3 mph 9.3 mph 53 % 0.0 in
17:12 25.5 °F 15.2 °F 1012.8 in SW 13.0 mph 13.0 mph 53 % 0.0 in
17:17 25.4 °F 15.1 °F 1012.8 in SW 13.0 mph 13.0 mph 53 % 0.0 in
17:22 25.4 °F 15.1 °F 1012.8 in WSW 9.3 mph 9.3 mph 53 % 0.0 in
17:27 25.4 °F 15.1 °F 1012.8 in WSW 9.3 mph 9.3 mph 53 % 0.0 in
17:32 25.4 °F 15.1 °F 1012.8 in South 16.7 mph 16.7 mph 53 % 0.0 in
17:37 25.2 °F 14.9 °F 1012.8 in SSW 13.0 mph 13.0 mph 53 % 0.0 in
17:52 25.3 °F 15.3 °F 1012.8 in SSW 5.6 mph 5.6 mph 54 % 0.0 in
17:57 25.3 °F 15.3 °F 1012.8 in South 5.6 mph 5.6 mph 54 % 0.0 in
18:02 25.3 °F 15.6 °F 1012.8 in WSW 9.3 mph 9.3 mph 55 % 0.0 in
18:07 25.4 °F 15.7 °F 1012.8 in SW 9.3 mph 9.3 mph 55 % 0.0 in
18:12 25.2 °F 15.5 °F 1012.8 in WSW 9.3 mph 9.3 mph 55 % 0.0 in
18:17 25.1 °F 15.4 °F 1012.8 in South 9.3 mph 9.3 mph 55 % 0.0 in
18:22 25.0 °F 15.3 °F 1012.8 in South 7.4 mph 7.4 mph 55 % 0.0 in
18:27 24.9 °F 15.8 °F 1012.8 in SW 7.4 mph 7.4 mph 57 % 0.0 in
18:32 24.8 °F 15.7 °F 1012.8 in WSW 12.2 mph 12.2 mph 57 % 0.0 in
18:37 24.6 °F 15.8 °F 1012.8 in SSW 7.4 mph 7.4 mph 58 % 0.0 in
18:42 24.6 °F 15.8 °F 1011.7 in West 9.3 mph 9.3 mph 58 % 0.0 in
18:47 24.6 °F 15.8 °F 1011.7 in South 9.3 mph 9.3 mph 58 % 0.0 in
18:52 24.6 °F 16.1 °F 1011.7 in WSW 14.8 mph 14.8 mph 59 % 0.0 in
18:57 24.5 °F 15.9 °F 1011.7 in WSW 6.4 mph 6.4 mph 59 % 0.0 in
19:02 24.5 °F 16.2 °F 1011.7 in SW 5.6 mph 5.6 mph 60 % 0.0 in
19:07 24.3 °F 16.1 °F 1011.7 in SSW 5.6 mph 5.6 mph 60 % 0.0 in
19:12 24.3 °F 16.1 °F 1011.7 in SW 7.4 mph 7.4 mph 60 % 0.0 in
19:17 24.2 °F 15.9 °F 1011.7 in SSW 9.3 mph 9.3 mph 60 % 0.0 in
19:22 24.0 °F 15.8 °F 1011.7 in WSW 7.6 mph 7.6 mph 60 % 0.0 in
19:27 24.0 °F 16.0 °F 1011.7 in SW 9.3 mph 9.3 mph 61 % 0.0 in
19:32 24.0 °F 16.0 °F 1011.7 in SW 9.3 mph 9.3 mph 61 % 0.0 in
19:37 23.9 °F 16.2 °F 1011.7 in SW 9.3 mph 9.3 mph 62 % 0.0 in
19:42 23.8 °F 16.1 °F 1011.7 in SW 11.9 mph 11.9 mph 62 % 0.0 in
19:47 23.8 °F 16.3 °F 1011.7 in WSW 3.9 mph 3.9 mph 63 % 0.0 in
19:52 23.7 °F 16.2 °F 1011.7 in WSW 7.4 mph 7.4 mph 63 % 0.0 in
19:57 23.7 °F 16.2 °F 1011.7 in SSW 5.6 mph 5.6 mph 63 % 0.0 in
20:02 23.6 °F 16.2 °F 1011.7 in SW 3.9 mph 3.9 mph 63 % 0.0 in
20:07 23.6 °F 16.2 °F 1011.7 in SW 5.6 mph 5.6 mph 63 % 0.0 in
20:12 23.5 °F 16.1 °F 1011.7 in SW 3.7 mph 4.2 mph 63 % 0.0 in
20:17 23.4 °F 16.2 °F 1011.7 in WSW 5.6 mph 5.6 mph 64 % 0.0 in
20:20 21.3 °F 16.9 °F 1011.7 in SW 1.6 mph 3.2 mph 76 % 0.0 in
20:22 23.3 °F 16.1 °F 1011.7 in SW 3.9 mph 4.2 mph 64 % 0.0 in
20:27 23.3 °F 16.1 °F 1011.7 in WSW 9.3 mph 9.3 mph 64 % 0.0 in
20:30 21.3 °F 16.9 °F 1011.7 in SW 1.6 mph 3.2 mph 76 % 0.0 in
20:32 23.2 °F 16.3 °F 1011.7 in SW 3.9 mph 3.9 mph 65 % 0.0 in
20:37 23.1 °F 16.2 °F 1011.7 in WSW 7.4 mph 7.4 mph 65 % 0.0 in
20:40 21.4 °F 17.0 °F 1011.7 in WSW 3.2 mph 4.8 mph 76 % 0.0 in
20:42 23.1 °F 16.2 °F 1011.7 in WSW 3.7 mph 3.7 mph 65 % 0.0 in
20:47 23.1 °F 16.4 °F 1011.7 in WSW 3.7 mph 3.7 mph 66 % 0.0 in
20:48 23.1 °F 16.2 °F 1011.7 in WNW 3.7 mph 3.7 mph 65 % 0.0 in
20:50 21.4 °F 17.2 °F 1011.7 in WSW 1.6 mph 4.8 mph 77 % 0.0 in
20:53 23.0 °F 16.1 °F 1011.7 in SSW 7.4 mph 7.4 mph 65 % 0.0 in
20:58 23.0 °F 16.3 °F 1011.7 in SW 5.6 mph 5.6 mph 66 % 0.0 in
21:00 21.4 °F 17.2 °F 1011.7 in Calm   3.2 mph 77 % 0.0 in
21:03 22.9 °F 16.2 °F 1011.7 in WSW 7.4 mph 7.4 mph 66 % 0.0 in
21:08 22.9 °F 16.2 °F 1011.7 in WSW 5.6 mph 5.6 mph 66 % 0.0 in
21:10 21.3 °F 17.1 °F 1011.7 in SW 1.6 mph 4.8 mph 77 % 0.0 in
21:13 22.8 °F 16.1 °F 1011.7 in SW 5.6 mph 5.6 mph 66 % 0.0 in
21:18 22.8 °F 16.1 °F 1011.7 in SSW 9.3 mph 9.3 mph 66 % 0.0 in
21:20 21.2 °F 17.0 °F 1011.7 in SW 1.6 mph 3.2 mph 77 % 0.0 in
21:23 22.7 °F 16.3 °F 1011.7 in SW 5.6 mph 5.6 mph 67 % 0.0 in
21:28 22.7 °F 16.3 °F 1012.8 in WSW 7.4 mph 7.4 mph 67 % 0.0 in
21:30 21.2 °F 17.2 °F 1012.8 in SW 1.6 mph 3.2 mph 78 % 0.0 in
21:33 22.6 °F 16.4 °F 1012.8 in WSW 3.7 mph 3.7 mph 68 % 0.0 in
21:38 22.6 °F 16.4 °F 1012.8 in SW 3.7 mph 3.7 mph 68 % 0.0 in
21:40 21.2 °F 17.2 °F 1012.8 in Calm   1.6 mph 78 % 0.0 in
21:43 22.5 °F 16.3 °F 1012.8 in SSW 3.7 mph 3.7 mph 68 % 0.0 in
21:48 22.5 °F 16.5 °F 1012.8 in SW 3.7 mph 3.7 mph 69 % 0.0 in
21:50 21.2 °F 17.2 °F 1011.7 in WSW 1.6 mph   78 % 0.0 in
21:58 22.5 °F 16.5 °F 1012.8 in WSW 2.3 mph 2.3 mph 69 % 0.0 in
22:00 21.3 °F 17.3 °F 1012.8 in WSW 1.6 mph 1.6 mph 78 % 0.0 in
22:03 22.4 °F 16.4 °F 1012.8 in Calm     69 % 0.0 in
22:08 22.3 °F 16.3 °F 1012.8 in SW 3.7 mph 3.7 mph 69 % 0.0 in
22:10 21.3 °F 17.5 °F 1012.8 in Calm     79 % 0.0 in
22:13 22.2 °F 16.4 °F 1012.8 in WSW 3.7 mph 3.7 mph 70 % 0.0 in
22:18 22.2 °F 16.4 °F 1012.8 in WSW 2.3 mph 2.3 mph 70 % 0.0 in
22:20 21.3 °F 17.5 °F 1011.7 in Calm   1.6 mph 79 % 0.0 in
22:23 22.2 °F 16.4 °F 1012.8 in Calm     70 % 0.0 in
22:28 22.1 °F 16.4 °F 1012.8 in WSW 2.6 mph 2.6 mph 70 % 0.0 in
22:30 21.3 °F 17.3 °F 1011.7 in NW 1.6 mph 3.2 mph 78 % 0.0 in
22:33 22.1 °F 16.6 °F 1012.8 in West 2.3 mph   71 % 0.0 in
22:38 22.0 °F 16.5 °F 1012.8 in SW 3.7 mph 3.7 mph 71 % 0.0 in
22:40 21.1 °F 17.1 °F 1011.7 in Calm   1.6 mph 78 % 0.0 in
22:43 21.8 °F 16.5 °F 1012.8 in SW 3.9 mph 3.9 mph 72 % 0.0 in
22:48 21.7 °F 16.4 °F 1012.8 in SW 3.7 mph 3.7 mph 72 % 0.0 in
22:50 21.0 °F 17.2 °F 1012.8 in Calm   3.2 mph 79 % 0.0 in
22:53 21.7 °F 16.7 °F 1012.8 in WSW 1.9 mph   73 % 0.0 in
22:58 21.6 °F 16.8 °F 1012.8 in Calm     74 % 0.0 in
23:00 21.0 °F 17.0 °F 1012.8 in SW 1.6 mph 3.2 mph 78 % 0.0 in
23:03 21.6 °F 16.8 °F 1012.8 in Calm     74 % 0.0 in
23:08 21.7 °F 16.9 °F 1012.8 in North 1.9 mph 2.3 mph 74 % 0.0 in
23:10 21.0 °F 17.0 °F 1012.8 in WSW 1.6 mph 3.2 mph 78 % 0.0 in
23:13 21.8 °F 16.9 °F 1011.7 in NNW 2.3 mph   74 % 0.0 in
23:18 21.8 °F 17.2 °F 1011.7 in NNE 1.9 mph 1.9 mph 75 % 0.0 in
23:20 21.0 °F 17.0 °F 1012.8 in WSW 1.6 mph 1.6 mph 78 % 0.0 in
23:23 21.8 °F 17.2 °F 1011.7 in NNE 1.9 mph 1.9 mph 75 % 0.0 in
23:28 21.7 °F 17.1 °F 1011.7 in Calm     75 % 0.0 in
23:30 21.0 °F 17.0 °F 1012.8 in Calm   1.6 mph 78 % 0.0 in
23:33 21.7 °F 17.1 °F 1011.7 in West 1.9 mph   75 % 0.0 in
23:38 21.6 °F 17.0 °F 1011.7 in SW 1.9 mph 1.9 mph 75 % 0.0 in
23:40 21.1 °F 17.1 °F 1012.8 in Calm   3.2 mph 78 % 0.0 in
23:43 21.5 °F 16.9 °F 1012.8 in SW 1.9 mph 2.3 mph 75 % 0.0 in
23:48 21.4 °F 16.8 °F 1012.8 in Calm     75 % 0.0 in
23:50 21.0 °F 17.2 °F 1013.8 in SW 1.6 mph 3.2 mph 79 % 0.0 in
23:53 21.3 °F 16.7 °F 1012.8 in Calm     75 % 0.0 in
23:58 21.3 °F 16.9 °F 1012.8 in Calm     76 % 0.0 in
Meteo Sesrovires
Elogis d' Weather Underground - 1.5 mb

Guio original per  Jim McMurry - jmcmurry@mwt.net Adaptat per a la plantilla per  Wim van der Kuil - Leuven-Template.eu

Trobareu la nostra informacio del temps tambe a:

Weather Underground

AWEKAS